sensor_id;sensor_type;location;lat;lon;timestamp;P1;durP1;ratioP1;P2;durP2;ratioP2
609;SDS011;292;48.800;9.216;2023-03-01T00:02:21;24.02;;;12.43;;
609;SDS011;292;48.800;9.216;2023-03-01T00:04:48;35.95;;;12.45;;
609;SDS011;292;48.800;9.216;2023-03-01T00:07:16;35.42;;;13.77;;
609;SDS011;292;48.800;9.216;2023-03-01T00:09:43;37.00;;;13.75;;
609;SDS011;292;48.800;9.216;2023-03-01T00:12:10;24.15;;;11.88;;
609;SDS011;292;48.800;9.216;2023-03-01T00:14:37;29.48;;;12.68;;
609;SDS011;292;48.800;9.216;2023-03-01T00:17:05;31.70;;;13.13;;
609;SDS011;292;48.800;9.216;2023-03-01T00:19:32;28.05;;;12.40;;
609;SDS011;292;48.800;9.216;2023-03-01T00:21:59;30.45;;;13.25;;
609;SDS011;292;48.800;9.216;2023-03-01T00:24:28;29.27;;;12.57;;
609;SDS011;292;48.800;9.216;2023-03-01T00:26:55;32.20;;;13.20;;
609;SDS011;292;48.800;9.216;2023-03-01T00:29:22;31.63;;;11.90;;
609;SDS011;292;48.800;9.216;2023-03-01T00:31:50;32.42;;;13.90;;
609;SDS011;292;48.800;9.216;2023-03-01T00:34:17;31.50;;;14.50;;
609;SDS011;292;48.800;9.216;2023-03-01T00:36:44;26.25;;;11.80;;
609;SDS011;292;48.800;9.216;2023-03-01T00:39:11;26.40;;;12.30;;
609;SDS011;292;48.800;9.216;2023-03-01T00:41:41;24.90;;;10.80;;
609;SDS011;292;48.800;9.216;2023-03-01T00:44:09;29.73;;;13.20;;
609;SDS011;292;48.800;9.216;2023-03-01T00:46:36;32.15;;;12.30;;
609;SDS011;292;48.800;9.216;2023-03-01T00:49:04;28.42;;;13.23;;
609;SDS011;292;48.800;9.216;2023-03-01T00:51:32;26.40;;;12.55;;
609;SDS011;292;48.800;9.216;2023-03-01T00:54:00;36.85;;;13.40;;
609;SDS011;292;48.800;9.216;2023-03-01T00:56:28;29.45;;;12.32;;
609;SDS011;292;48.800;9.216;2023-03-01T00:58:57;26.83;;;11.35;;
609;SDS011;292;48.800;9.216;2023-03-01T01:01:24;24.30;;;11.07;;
609;SDS011;292;48.800;9.216;2023-03-01T01:03:56;24.77;;;11.38;;
609;SDS011;292;48.800;9.216;2023-03-01T01:06:25;20.48;;;10.73;;
609;SDS011;292;48.800;9.216;2023-03-01T01:08:53;25.65;;;12.27;;
609;SDS011;292;48.800;9.216;2023-03-01T01:11:21;25.73;;;12.88;;
609;SDS011;292;48.800;9.216;2023-03-01T01:13:49;24.02;;;11.73;;
609;SDS011;292;48.800;9.216;2023-03-01T01:16:18;30.88;;;12.90;;
609;SDS011;292;48.800;9.216;2023-03-01T01:18:47;28.50;;;12.75;;
609;SDS011;292;48.800;9.216;2023-03-01T01:21:15;29.67;;;12.25;;
609;SDS011;292;48.800;9.216;2023-03-01T01:23:43;28.55;;;12.95;;
609;SDS011;292;48.800;9.216;2023-03-01T01:26:12;29.35;;;13.30;;
609;SDS011;292;48.800;9.216;2023-03-01T01:28:40;28.65;;;12.88;;
609;SDS011;292;48.800;9.216;2023-03-01T01:31:07;35.63;;;13.75;;
609;SDS011;292;48.800;9.216;2023-03-01T01:33:36;34.65;;;13.05;;
609;SDS011;292;48.800;9.216;2023-03-01T01:36:04;30.40;;;13.23;;
609;SDS011;292;48.800;9.216;2023-03-01T01:38:32;30.48;;;12.93;;
609;SDS011;292;48.800;9.216;2023-03-01T01:40:59;31.40;;;13.25;;
609;SDS011;292;48.800;9.216;2023-03-01T01:43:27;29.58;;;12.95;;
609;SDS011;292;48.800;9.216;2023-03-01T01:45:55;33.42;;;13.48;;
609;SDS011;292;48.800;9.216;2023-03-01T01:48:27;29.60;;;14.18;;
609;SDS011;292;48.800;9.216;2023-03-01T01:51:06;35.55;;;14.10;;
609;SDS011;292;48.800;9.216;2023-03-01T01:53:36;30.58;;;13.05;;
609;SDS011;292;48.800;9.216;2023-03-01T01:56:05;28.05;;;12.60;;
609;SDS011;292;48.800;9.216;2023-03-01T01:58:34;32.95;;;13.82;;
609;SDS011;292;48.800;9.216;2023-03-01T02:01:03;35.55;;;14.35;;
609;SDS011;292;48.800;9.216;2023-03-01T02:03:31;32.13;;;13.57;;
609;SDS011;292;48.800;9.216;2023-03-01T02:06:03;31.45;;;13.75;;
609;SDS011;292;48.800;9.216;2023-03-01T02:08:35;40.72;;;15.40;;
609;SDS011;292;48.800;9.216;2023-03-01T02:11:06;27.88;;;13.23;;
609;SDS011;292;48.800;9.216;2023-03-01T02:13:34;33.83;;;13.48;;
609;SDS011;292;48.800;9.216;2023-03-01T02:16:02;30.23;;;13.32;;
609;SDS011;292;48.800;9.216;2023-03-01T02:18:30;33.10;;;14.75;;
609;SDS011;292;48.800;9.216;2023-03-01T02:21:01;29.80;;;13.77;;
609;SDS011;292;48.800;9.216;2023-03-01T02:23:44;30.08;;;12.48;;
609;SDS011;292;48.800;9.216;2023-03-01T02:26:15;33.80;;;14.50;;
609;SDS011;292;48.800;9.216;2023-03-01T02:28:48;34.65;;;12.50;;
609;SDS011;292;48.800;9.216;2023-03-01T02:31:16;31.02;;;13.23;;
609;SDS011;292;48.800;9.216;2023-03-01T02:34:03;36.20;;;12.70;;
609;SDS011;292;48.800;9.216;2023-03-01T02:36:31;31.77;;;12.38;;
609;SDS011;292;48.800;9.216;2023-03-01T02:39:03;29.02;;;12.70;;
609;SDS011;292;48.800;9.216;2023-03-01T02:41:34;27.67;;;12.23;;
609;SDS011;292;48.800;9.216;2023-03-01T02:44:04;29.48;;;12.32;;
609;SDS011;292;48.800;9.216;2023-03-01T02:46:33;31.60;;;13.30;;
609;SDS011;292;48.800;9.216;2023-03-01T02:49:15;32.55;;;14.10;;
609;SDS011;292;48.800;9.216;2023-03-01T02:51:47;32.63;;;13.43;;
609;SDS011;292;48.800;9.216;2023-03-01T02:54:23;34.42;;;14.32;;
609;SDS011;292;48.800;9.216;2023-03-01T02:56:54;37.13;;;14.18;;
609;SDS011;292;48.800;9.216;2023-03-01T02:59:24;34.63;;;14.55;;
609;SDS011;292;48.800;9.216;2023-03-01T03:01:54;33.75;;;13.43;;
609;SDS011;292;48.800;9.216;2023-03-01T03:04:21;36.17;;;14.82;;
609;SDS011;292;48.800;9.216;2023-03-01T03:06:49;31.70;;;12.55;;
609;SDS011;292;48.800;9.216;2023-03-01T03:09:17;29.85;;;12.75;;
609;SDS011;292;48.800;9.216;2023-03-01T03:11:44;28.30;;;13.52;;
609;SDS011;292;48.800;9.216;2023-03-01T03:14:12;30.83;;;13.98;;
609;SDS011;292;48.800;9.216;2023-03-01T03:16:43;27.92;;;13.43;;
609;SDS011;292;48.800;9.216;2023-03-01T03:19:12;33.38;;;13.23;;
609;SDS011;292;48.800;9.216;2023-03-01T03:21:39;30.70;;;13.45;;
609;SDS011;292;48.800;9.216;2023-03-01T03:24:07;27.70;;;13.20;;
609;SDS011;292;48.800;9.216;2023-03-01T03:26:34;33.63;;;15.23;;
609;SDS011;292;48.800;9.216;2023-03-01T03:29:01;33.85;;;14.85;;
609;SDS011;292;48.800;9.216;2023-03-01T03:31:30;31.90;;;14.40;;
609;SDS011;292;48.800;9.216;2023-03-01T03:33:59;34.53;;;15.00;;
609;SDS011;292;48.800;9.216;2023-03-01T03:36:25;35.10;;;14.88;;
609;SDS011;292;48.800;9.216;2023-03-01T03:38:52;36.55;;;16.55;;
609;SDS011;292;48.800;9.216;2023-03-01T03:41:19;34.97;;;15.05;;
609;SDS011;292;48.800;9.216;2023-03-01T03:43:48;32.70;;;13.52;;
609;SDS011;292;48.800;9.216;2023-03-01T03:46:15;33.38;;;13.07;;
609;SDS011;292;48.800;9.216;2023-03-01T03:48:43;34.70;;;14.07;;
609;SDS011;292;48.800;9.216;2023-03-01T03:51:12;33.60;;;14.18;;
609;SDS011;292;48.800;9.216;2023-03-01T03:53:41;27.80;;;13.23;;
609;SDS011;292;48.800;9.216;2023-03-01T03:56:08;33.75;;;13.82;;
609;SDS011;292;48.800;9.216;2023-03-01T03:58:35;38.90;;;15.02;;
609;SDS011;292;48.800;9.216;2023-03-01T04:01:03;38.15;;;15.43;;
609;SDS011;292;48.800;9.216;2023-03-01T04:03:31;27.70;;;12.43;;
609;SDS011;292;48.800;9.216;2023-03-01T04:06:00;29.48;;;13.65;;
609;SDS011;292;48.800;9.216;2023-03-01T04:08:28;31.02;;;14.02;;
609;SDS011;292;48.800;9.216;2023-03-01T04:10:59;27.20;;;12.25;;
609;SDS011;292;48.800;9.216;2023-03-01T04:13:48;26.13;;;11.77;;
609;SDS011;292;48.800;9.216;2023-03-01T04:16:16;30.13;;;13.35;;
609;SDS011;292;48.800;9.216;2023-03-01T04:18:43;36.22;;;15.77;;
609;SDS011;292;48.800;9.216;2023-03-01T04:21:10;35.00;;;14.05;;
609;SDS011;292;48.800;9.216;2023-03-01T04:23:40;27.95;;;13.35;;
609;SDS011;292;48.800;9.216;2023-03-01T04:26:08;34.33;;;14.00;;
609;SDS011;292;48.800;9.216;2023-03-01T04:28:36;34.15;;;13.60;;
609;SDS011;292;48.800;9.216;2023-03-01T04:31:05;29.63;;;14.07;;
609;SDS011;292;48.800;9.216;2023-03-01T04:33:39;34.03;;;13.32;;
609;SDS011;292;48.800;9.216;2023-03-01T04:36:07;29.70;;;13.40;;
609;SDS011;292;48.800;9.216;2023-03-01T04:38:35;28.95;;;12.60;;
609;SDS011;292;48.800;9.216;2023-03-01T04:41:05;30.17;;;14.02;;
609;SDS011;292;48.800;9.216;2023-03-01T04:43:33;32.17;;;13.60;;
609;SDS011;292;48.800;9.216;2023-03-01T04:46:00;30.27;;;13.15;;
609;SDS011;292;48.800;9.216;2023-03-01T04:48:29;25.60;;;11.75;;
609;SDS011;292;48.800;9.216;2023-03-01T04:50:58;26.85;;;12.15;;
609;SDS011;292;48.800;9.216;2023-03-01T04:53:26;30.65;;;12.60;;
609;SDS011;292;48.800;9.216;2023-03-01T04:55:53;28.17;;;13.55;;
609;SDS011;292;48.800;9.216;2023-03-01T04:58:23;42.38;;;14.80;;
609;SDS011;292;48.800;9.216;2023-03-01T05:00:51;25.58;;;12.73;;
609;SDS011;292;48.800;9.216;2023-03-01T05:03:19;31.42;;;14.10;;
609;SDS011;292;48.800;9.216;2023-03-01T05:05:47;36.63;;;14.90;;
609;SDS011;292;48.800;9.216;2023-03-01T05:08:16;29.92;;;13.00;;
609;SDS011;292;48.800;9.216;2023-03-01T05:10:44;34.50;;;14.20;;
609;SDS011;292;48.800;9.216;2023-03-01T05:13:13;30.80;;;13.95;;
609;SDS011;292;48.800;9.216;2023-03-01T05:15:47;28.80;;;13.40;;
609;SDS011;292;48.800;9.216;2023-03-01T05:18:15;31.67;;;13.63;;
609;SDS011;292;48.800;9.216;2023-03-01T05:20:42;29.23;;;14.65;;
609;SDS011;292;48.800;9.216;2023-03-01T05:23:09;40.85;;;15.48;;
609;SDS011;292;48.800;9.216;2023-03-01T05:25:36;27.88;;;13.35;;
609;SDS011;292;48.800;9.216;2023-03-01T05:28:05;31.63;;;14.07;;
609;SDS011;292;48.800;9.216;2023-03-01T05:30:34;31.02;;;12.85;;
609;SDS011;292;48.800;9.216;2023-03-01T05:33:05;33.97;;;14.27;;
609;SDS011;292;48.800;9.216;2023-03-01T05:35:40;27.33;;;13.43;;
609;SDS011;292;48.800;9.216;2023-03-01T05:38:07;29.70;;;13.40;;
609;SDS011;292;48.800;9.216;2023-03-01T05:40:38;35.60;;;15.38;;
609;SDS011;292;48.800;9.216;2023-03-01T05:43:06;28.42;;;14.07;;
609;SDS011;292;48.800;9.216;2023-03-01T05:45:35;39.95;;;17.05;;
609;SDS011;292;48.800;9.216;2023-03-01T05:48:05;31.20;;;14.07;;
609;SDS011;292;48.800;9.216;2023-03-01T05:50:35;30.27;;;13.70;;
609;SDS011;292;48.800;9.216;2023-03-01T05:53:04;34.42;;;13.25;;
609;SDS011;292;48.800;9.216;2023-03-01T05:55:33;35.63;;;15.07;;
609;SDS011;292;48.800;9.216;2023-03-01T05:58:02;32.60;;;13.73;;
609;SDS011;292;48.800;9.216;2023-03-01T06:00:30;36.42;;;15.18;;
609;SDS011;292;48.800;9.216;2023-03-01T06:02:57;31.65;;;13.63;;
609;SDS011;292;48.800;9.216;2023-03-01T06:05:27;32.08;;;14.68;;
609;SDS011;292;48.800;9.216;2023-03-01T06:07:54;38.72;;;13.88;;
609;SDS011;292;48.800;9.216;2023-03-01T06:10:24;31.25;;;13.70;;
609;SDS011;292;48.800;9.216;2023-03-01T06:12:51;32.00;;;13.82;;
609;SDS011;292;48.800;9.216;2023-03-01T06:15:18;33.38;;;16.20;;
609;SDS011;292;48.800;9.216;2023-03-01T06:17:45;28.92;;;12.98;;
609;SDS011;292;48.800;9.216;2023-03-01T06:20:13;41.28;;;16.73;;
609;SDS011;292;48.800;9.216;2023-03-01T06:22:44;31.05;;;14.32;;
609;SDS011;292;48.800;9.216;2023-03-01T06:25:12;42.28;;;15.63;;
609;SDS011;292;48.800;9.216;2023-03-01T06:27:41;34.33;;;14.80;;
609;SDS011;292;48.800;9.216;2023-03-01T06:30:10;44.90;;;15.55;;
609;SDS011;292;48.800;9.216;2023-03-01T06:32:39;35.85;;;15.10;;
609;SDS011;292;48.800;9.216;2023-03-01T06:35:07;35.35;;;14.30;;
609;SDS011;292;48.800;9.216;2023-03-01T06:37:35;41.80;;;14.30;;
609;SDS011;292;48.800;9.216;2023-03-01T06:40:04;39.03;;;15.30;;
609;SDS011;292;48.800;9.216;2023-03-01T06:42:33;37.35;;;14.32;;
609;SDS011;292;48.800;9.216;2023-03-01T06:45:00;34.95;;;15.18;;
609;SDS011;292;48.800;9.216;2023-03-01T06:47:27;35.58;;;15.95;;
609;SDS011;292;48.800;9.216;2023-03-01T06:49:54;42.20;;;15.82;;
609;SDS011;292;48.800;9.216;2023-03-01T06:52:21;41.63;;;16.20;;
609;SDS011;292;48.800;9.216;2023-03-01T06:54:48;45.38;;;16.33;;
609;SDS011;292;48.800;9.216;2023-03-01T06:57:16;39.50;;;15.73;;
609;SDS011;292;48.800;9.216;2023-03-01T06:59:43;38.95;;;16.42;;
609;SDS011;292;48.800;9.216;2023-03-01T07:02:11;40.03;;;16.10;;
609;SDS011;292;48.800;9.216;2023-03-01T07:04:38;37.38;;;15.35;;
609;SDS011;292;48.800;9.216;2023-03-01T07:07:05;33.75;;;14.90;;
609;SDS011;292;48.800;9.216;2023-03-01T07:09:32;38.65;;;15.57;;
609;SDS011;292;48.800;9.216;2023-03-01T07:12:00;34.97;;;14.65;;
609;SDS011;292;48.800;9.216;2023-03-01T07:14:28;39.83;;;15.85;;
609;SDS011;292;48.800;9.216;2023-03-01T07:16:55;43.60;;;15.48;;
609;SDS011;292;48.800;9.216;2023-03-01T07:19:22;30.77;;;14.25;;
609;SDS011;292;48.800;9.216;2023-03-01T07:21:50;33.15;;;14.10;;
609;SDS011;292;48.800;9.216;2023-03-01T07:24:17;38.15;;;14.73;;
609;SDS011;292;48.800;9.216;2023-03-01T07:26:43;41.70;;;16.20;;
609;SDS011;292;48.800;9.216;2023-03-01T07:29:14;42.92;;;16.45;;
609;SDS011;292;48.800;9.216;2023-03-01T07:31:42;34.38;;;14.55;;
609;SDS011;292;48.800;9.216;2023-03-01T07:34:09;31.77;;;15.55;;
609;SDS011;292;48.800;9.216;2023-03-01T07:36:36;37.08;;;16.02;;
609;SDS011;292;48.800;9.216;2023-03-01T07:39:04;38.65;;;14.18;;
609;SDS011;292;48.800;9.216;2023-03-01T07:41:31;34.13;;;15.18;;
609;SDS011;292;48.800;9.216;2023-03-01T07:43:58;35.78;;;15.73;;
609;SDS011;292;48.800;9.216;2023-03-01T07:46:26;28.17;;;14.45;;
609;SDS011;292;48.800;9.216;2023-03-01T07:48:54;37.70;;;16.48;;
609;SDS011;292;48.800;9.216;2023-03-01T07:51:23;38.78;;;15.70;;
609;SDS011;292;48.800;9.216;2023-03-01T07:53:50;34.00;;;15.15;;
609;SDS011;292;48.800;9.216;2023-03-01T07:56:17;55.92;;;16.50;;
609;SDS011;292;48.800;9.216;2023-03-01T07:58:44;37.50;;;15.73;;
609;SDS011;292;48.800;9.216;2023-03-01T08:01:12;37.60;;;16.20;;
609;SDS011;292;48.800;9.216;2023-03-01T08:03:40;34.22;;;14.68;;
609;SDS011;292;48.800;9.216;2023-03-01T08:06:13;35.60;;;15.82;;
609;SDS011;292;48.800;9.216;2023-03-01T08:08:43;34.08;;;14.38;;
609;SDS011;292;48.800;9.216;2023-03-01T08:11:11;35.92;;;16.15;;
609;SDS011;292;48.800;9.216;2023-03-01T08:13:39;42.08;;;17.50;;
609;SDS011;292;48.800;9.216;2023-03-01T08:16:07;40.30;;;16.52;;
609;SDS011;292;48.800;9.216;2023-03-01T08:18:36;37.35;;;17.15;;
609;SDS011;292;48.800;9.216;2023-03-01T08:21:03;31.95;;;16.38;;
609;SDS011;292;48.800;9.216;2023-03-01T08:23:33;42.65;;;16.73;;
609;SDS011;292;48.800;9.216;2023-03-01T08:26:03;32.83;;;14.07;;
609;SDS011;292;48.800;9.216;2023-03-01T08:28:31;33.10;;;14.57;;
609;SDS011;292;48.800;9.216;2023-03-01T08:30:58;37.60;;;17.77;;
609;SDS011;292;48.800;9.216;2023-03-01T08:33:27;47.58;;;15.90;;
609;SDS011;292;48.800;9.216;2023-03-01T08:36:01;39.00;;;16.05;;
609;SDS011;292;48.800;9.216;2023-03-01T08:38:33;34.70;;;15.35;;
609;SDS011;292;48.800;9.216;2023-03-01T08:41:00;43.85;;;16.35;;
609;SDS011;292;48.800;9.216;2023-03-01T08:43:28;29.45;;;14.82;;
609;SDS011;292;48.800;9.216;2023-03-01T08:45:55;37.45;;;16.98;;
609;SDS011;292;48.800;9.216;2023-03-01T08:48:22;36.08;;;15.60;;
609;SDS011;292;48.800;9.216;2023-03-01T08:50:50;36.80;;;16.25;;
609;SDS011;292;48.800;9.216;2023-03-01T08:53:16;44.33;;;16.95;;
609;SDS011;292;48.800;9.216;2023-03-01T08:55:45;68.80;;;18.65;;
609;SDS011;292;48.800;9.216;2023-03-01T08:58:12;32.75;;;14.93;;
609;SDS011;292;48.800;9.216;2023-03-01T09:00:39;31.92;;;15.50;;
609;SDS011;292;48.800;9.216;2023-03-01T09:03:08;41.20;;;16.30;;
609;SDS011;292;48.800;9.216;2023-03-01T09:05:39;35.75;;;15.73;;
609;SDS011;292;48.800;9.216;2023-03-01T09:08:06;36.72;;;15.02;;
609;SDS011;292;48.800;9.216;2023-03-01T09:10:36;39.45;;;16.15;;
609;SDS011;292;48.800;9.216;2023-03-01T09:13:05;36.20;;;16.40;;
609;SDS011;292;48.800;9.216;2023-03-01T09:15:32;43.55;;;16.10;;
609;SDS011;292;48.800;9.216;2023-03-01T09:17:59;37.17;;;17.63;;
609;SDS011;292;48.800;9.216;2023-03-01T09:20:26;45.83;;;17.15;;
609;SDS011;292;48.800;9.216;2023-03-01T09:22:53;36.55;;;16.30;;
609;SDS011;292;48.800;9.216;2023-03-01T09:25:20;44.08;;;17.02;;
609;SDS011;292;48.800;9.216;2023-03-01T09:27:49;36.15;;;16.75;;
609;SDS011;292;48.800;9.216;2023-03-01T09:30:18;35.92;;;16.30;;
609;SDS011;292;48.800;9.216;2023-03-01T09:32:46;36.50;;;16.83;;
609;SDS011;292;48.800;9.216;2023-03-01T09:35:13;32.03;;;14.40;;
609;SDS011;292;48.800;9.216;2023-03-01T09:37:41;34.97;;;17.05;;
609;SDS011;292;48.800;9.216;2023-03-01T09:40:11;36.13;;;15.88;;
609;SDS011;292;48.800;9.216;2023-03-01T09:42:46;37.15;;;17.52;;
609;SDS011;292;48.800;9.216;2023-03-01T09:45:21;35.90;;;16.20;;
609;SDS011;292;48.800;9.216;2023-03-01T09:47:53;33.53;;;16.42;;
609;SDS011;292;48.800;9.216;2023-03-01T09:50:22;49.72;;;16.75;;
609;SDS011;292;48.800;9.216;2023-03-01T09:52:50;37.78;;;16.92;;
609;SDS011;292;48.800;9.216;2023-03-01T09:55:29;35.33;;;15.35;;
609;SDS011;292;48.800;9.216;2023-03-01T09:58:01;39.85;;;16.27;;
609;SDS011;292;48.800;9.216;2023-03-01T10:00:53;33.83;;;15.70;;
609;SDS011;292;48.800;9.216;2023-03-01T10:03:26;35.15;;;15.23;;
609;SDS011;292;48.800;9.216;2023-03-01T10:05:59;37.40;;;16.13;;
609;SDS011;292;48.800;9.216;2023-03-01T10:08:31;36.72;;;15.07;;
609;SDS011;292;48.800;9.216;2023-03-01T10:11:14;30.73;;;15.48;;
609;SDS011;292;48.800;9.216;2023-03-01T10:13:48;34.03;;;14.88;;
609;SDS011;292;48.800;9.216;2023-03-01T10:16:24;32.60;;;15.07;;
609;SDS011;292;48.800;9.216;2023-03-01T10:18:55;37.70;;;17.73;;
609;SDS011;292;48.800;9.216;2023-03-01T10:21:26;31.30;;;13.77;;
609;SDS011;292;48.800;9.216;2023-03-01T10:23:56;39.63;;;15.20;;
609;SDS011;292;48.800;9.216;2023-03-01T10:26:44;32.17;;;15.25;;
609;SDS011;292;48.800;9.216;2023-03-01T10:29:17;40.70;;;16.10;;
609;SDS011;292;48.800;9.216;2023-03-01T10:31:52;33.15;;;15.77;;
609;SDS011;292;48.800;9.216;2023-03-01T10:34:36;34.20;;;15.18;;
609;SDS011;292;48.800;9.216;2023-03-01T10:37:09;35.50;;;15.85;;
609;SDS011;292;48.800;9.216;2023-03-01T10:39:53;27.90;;;13.55;;
609;SDS011;292;48.800;9.216;2023-03-01T10:42:25;29.05;;;13.93;;
609;SDS011;292;48.800;9.216;2023-03-01T10:44:57;32.90;;;14.75;;
609;SDS011;292;48.800;9.216;2023-03-01T10:47:27;36.65;;;15.90;;
609;SDS011;292;48.800;9.216;2023-03-01T10:49:56;38.60;;;17.50;;
609;SDS011;292;48.800;9.216;2023-03-01T10:52:27;37.15;;;16.40;;
609;SDS011;292;48.800;9.216;2023-03-01T10:55:04;30.60;;;14.98;;
609;SDS011;292;48.800;9.216;2023-03-01T10:57:51;34.70;;;15.68;;
609;SDS011;292;48.800;9.216;2023-03-01T11:00:45;33.67;;;14.65;;
609;SDS011;292;48.800;9.216;2023-03-01T11:03:19;29.85;;;14.63;;
609;SDS011;292;48.800;9.216;2023-03-01T11:05:52;26.52;;;13.70;;
609;SDS011;292;48.800;9.216;2023-03-01T11:08:34;30.52;;;14.40;;
609;SDS011;292;48.800;9.216;2023-03-01T11:11:13;31.93;;;15.93;;
609;SDS011;292;48.800;9.216;2023-03-01T11:13:54;33.83;;;15.70;;
609;SDS011;292;48.800;9.216;2023-03-01T11:16:24;37.57;;;15.63;;
609;SDS011;292;48.800;9.216;2023-03-01T11:18:59;37.83;;;17.70;;
609;SDS011;292;48.800;9.216;2023-03-01T11:21:31;31.43;;;15.27;;
609;SDS011;292;48.800;9.216;2023-03-01T11:24:01;31.38;;;15.70;;
609;SDS011;292;48.800;9.216;2023-03-01T11:26:31;28.17;;;14.30;;
609;SDS011;292;48.800;9.216;2023-03-01T11:29:07;30.23;;;13.93;;
609;SDS011;292;48.800;9.216;2023-03-01T11:31:47;28.57;;;14.00;;
609;SDS011;292;48.800;9.216;2023-03-01T11:34:17;30.37;;;15.23;;
609;SDS011;292;48.800;9.216;2023-03-01T11:36:51;42.53;;;16.20;;
609;SDS011;292;48.800;9.216;2023-03-01T11:39:22;29.93;;;14.63;;
609;SDS011;292;48.800;9.216;2023-03-01T11:42:00;27.90;;;14.10;;
609;SDS011;292;48.800;9.216;2023-03-01T11:44:31;27.33;;;13.50;;
609;SDS011;292;48.800;9.216;2023-03-01T11:47:14;30.57;;;16.27;;
609;SDS011;292;48.800;9.216;2023-03-01T11:50:07;27.90;;;14.53;;
609;SDS011;292;48.800;9.216;2023-03-01T11:52:45;28.43;;;13.50;;
609;SDS011;292;48.800;9.216;2023-03-01T11:55:32;29.63;;;13.93;;
609;SDS011;292;48.800;9.216;2023-03-01T11:58:14;26.47;;;12.57;;
609;SDS011;292;48.800;9.216;2023-03-01T12:00:59;32.03;;;15.57;;
609;SDS011;292;48.800;9.216;2023-03-01T12:03:40;27.93;;;14.43;;
609;SDS011;292;48.800;9.216;2023-03-01T12:06:36;26.07;;;14.17;;
609;SDS011;292;48.800;9.216;2023-03-01T12:09:17;23.13;;;12.07;;
609;SDS011;292;48.800;9.216;2023-03-01T12:12:04;26.50;;;13.03;;
609;SDS011;292;48.800;9.216;2023-03-01T12:14:47;25.50;;;13.73;;
609;SDS011;292;48.800;9.216;2023-03-01T12:17:30;24.33;;;13.40;;
609;SDS011;292;48.800;9.216;2023-03-01T12:22:52;25.73;;;13.13;;
609;SDS011;292;48.800;9.216;2023-03-01T12:25:30;28.43;;;13.67;;
609;SDS011;292;48.800;9.216;2023-03-01T12:34:16;26.77;;;14.43;;
609;SDS011;292;48.800;9.216;2023-03-01T12:36:59;22.90;;;12.57;;
609;SDS011;292;48.800;9.216;2023-03-01T12:39:44;25.73;;;13.50;;
609;SDS011;292;48.800;9.216;2023-03-01T12:42:23;30.47;;;14.57;;
609;SDS011;292;48.800;9.216;2023-03-01T12:45:02;22.53;;;11.30;;
609;SDS011;292;48.800;9.216;2023-03-01T12:47:56;22.97;;;12.33;;
609;SDS011;292;48.800;9.216;2023-03-01T12:50:35;21.40;;;12.00;;
609;SDS011;292;48.800;9.216;2023-03-01T12:53:21;23.20;;;11.93;;
609;SDS011;292;48.800;9.216;2023-03-01T12:55:51;30.90;;;11.80;;
609;SDS011;292;48.800;9.216;2023-03-01T12:58:24;25.90;;;12.47;;
609;SDS011;292;48.800;9.216;2023-03-01T13:01:01;19.00;;;11.23;;
609;SDS011;292;48.800;9.216;2023-03-01T13:03:44;23.50;;;12.40;;
609;SDS011;292;48.800;9.216;2023-03-01T13:06:28;24.10;;;11.00;;
609;SDS011;292;48.800;9.216;2023-03-01T13:09:04;25.73;;;13.30;;
609;SDS011;292;48.800;9.216;2023-03-01T13:11:42;23.70;;;11.90;;
609;SDS011;292;48.800;9.216;2023-03-01T13:17:30;22.20;;;11.23;;
609;SDS011;292;48.800;9.216;2023-03-01T13:20:15;23.60;;;11.63;;
609;SDS011;292;48.800;9.216;2023-03-01T13:22:43;23.50;;;11.37;;
609;SDS011;292;48.800;9.216;2023-03-01T13:25:19;20.70;;;10.93;;
609;SDS011;292;48.800;9.216;2023-03-01T13:28:40;25.43;;;12.53;;
609;SDS011;292;48.800;9.216;2023-03-01T13:54:22;29.83;;;14.50;;
609;SDS011;292;48.800;9.216;2023-03-01T13:56:54;28.80;;;14.43;;
609;SDS011;292;48.800;9.216;2023-03-01T13:59:22;27.63;;;13.50;;
609;SDS011;292;48.800;9.216;2023-03-01T14:01:54;30.37;;;14.50;;
609;SDS011;292;48.800;9.216;2023-03-01T14:04:26;28.57;;;15.13;;
609;SDS011;292;48.800;9.216;2023-03-01T14:07:08;31.17;;;15.63;;
609;SDS011;292;48.800;9.216;2023-03-01T14:09:39;32.37;;;16.47;;
609;SDS011;292;48.800;9.216;2023-03-01T14:14:57;34.33;;;14.30;;
609;SDS011;292;48.800;9.216;2023-03-01T14:17:33;30.93;;;15.73;;
609;SDS011;292;48.800;9.216;2023-03-01T14:20:14;29.57;;;14.20;;
609;SDS011;292;48.800;9.216;2023-03-01T14:22:44;32.13;;;15.33;;
609;SDS011;292;48.800;9.216;2023-03-01T14:25:21;29.50;;;16.60;;
609;SDS011;292;48.800;9.216;2023-03-01T14:27:51;32.60;;;15.10;;
609;SDS011;292;48.800;9.216;2023-03-01T14:30:24;35.60;;;16.03;;
609;SDS011;292;48.800;9.216;2023-03-01T14:32:55;33.20;;;16.70;;
609;SDS011;292;48.800;9.216;2023-03-01T14:35:25;28.63;;;15.50;;
609;SDS011;292;48.800;9.216;2023-03-01T14:37:53;29.03;;;14.30;;
609;SDS011;292;48.800;9.216;2023-03-01T14:40:23;30.53;;;15.83;;
609;SDS011;292;48.800;9.216;2023-03-01T14:42:52;29.70;;;15.13;;
609;SDS011;292;48.800;9.216;2023-03-01T14:45:21;26.70;;;14.10;;
609;SDS011;292;48.800;9.216;2023-03-01T14:47:51;33.90;;;14.70;;
609;SDS011;292;48.800;9.216;2023-03-01T14:50:21;31.70;;;15.47;;
609;SDS011;292;48.800;9.216;2023-03-01T14:52:52;33.70;;;16.80;;
609;SDS011;292;48.800;9.216;2023-03-01T14:55:24;31.90;;;15.10;;
609;SDS011;292;48.800;9.216;2023-03-01T14:57:56;34.43;;;16.57;;
609;SDS011;292;48.800;9.216;2023-03-01T15:00:25;30.53;;;14.50;;
609;SDS011;292;48.800;9.216;2023-03-01T15:02:54;29.33;;;14.40;;
609;SDS011;292;48.800;9.216;2023-03-01T15:05:25;28.00;;;14.53;;
609;SDS011;292;48.800;9.216;2023-03-01T15:07:59;36.70;;;16.63;;
609;SDS011;292;48.800;9.216;2023-03-01T15:10:31;35.87;;;16.40;;
609;SDS011;292;48.800;9.216;2023-03-01T15:13:09;29.60;;;15.77;;
609;SDS011;292;48.800;9.216;2023-03-01T15:15:38;32.10;;;15.57;;
609;SDS011;292;48.800;9.216;2023-03-01T15:18:13;37.13;;;17.70;;
609;SDS011;292;48.800;9.216;2023-03-01T15:20:43;30.40;;;15.70;;
609;SDS011;292;48.800;9.216;2023-03-01T15:26:00;31.07;;;14.80;;
609;SDS011;292;48.800;9.216;2023-03-01T15:28:29;27.17;;;14.77;;
609;SDS011;292;48.800;9.216;2023-03-01T15:30:59;30.63;;;15.30;;
609;SDS011;292;48.800;9.216;2023-03-01T15:33:37;29.87;;;16.30;;
609;SDS011;292;48.800;9.216;2023-03-01T15:36:31;30.10;;;15.40;;
609;SDS011;292;48.800;9.216;2023-03-01T15:39:03;28.10;;;14.37;;
609;SDS011;292;48.800;9.216;2023-03-01T15:41:36;31.73;;;15.40;;
609;SDS011;292;48.800;9.216;2023-03-01T15:44:15;35.83;;;15.53;;
609;SDS011;292;48.800;9.216;2023-03-01T15:46:45;29.37;;;16.23;;
609;SDS011;292;48.800;9.216;2023-03-01T15:49:22;32.77;;;15.60;;
609;SDS011;292;48.800;9.216;2023-03-01T15:51:55;34.17;;;14.37;;
609;SDS011;292;48.800;9.216;2023-03-01T15:54:23;35.87;;;16.40;;
609;SDS011;292;48.800;9.216;2023-03-01T15:56:54;32.10;;;15.30;;
609;SDS011;292;48.800;9.216;2023-03-01T15:59:21;31.10;;;15.33;;
609;SDS011;292;48.800;9.216;2023-03-01T16:01:48;35.97;;;15.53;;
609;SDS011;292;48.800;9.216;2023-03-01T16:04:17;30.53;;;14.63;;
609;SDS011;292;48.800;9.216;2023-03-01T16:06:48;28.40;;;13.57;;
609;SDS011;292;48.800;9.216;2023-03-01T16:09:19;31.00;;;15.10;;
609;SDS011;292;48.800;9.216;2023-03-01T16:11:48;34.47;;;13.13;;
609;SDS011;292;48.800;9.216;2023-03-01T16:14:17;29.00;;;14.63;;
609;SDS011;292;48.800;9.216;2023-03-01T16:16:45;31.30;;;14.40;;
609;SDS011;292;48.800;9.216;2023-03-01T16:19:13;29.30;;;13.73;;
609;SDS011;292;48.800;9.216;2023-03-01T16:21:40;29.63;;;14.80;;